createdAt,value
2017-04-01T00:00:40.317Z,14.21
2017-04-01T00:01:41.676Z,14.27
2017-04-01T00:02:42.915Z,14.21
2017-04-01T00:03:44.154Z,14.21
2017-04-01T00:04:45.399Z,14.21
2017-04-01T00:05:46.645Z,14.21
2017-04-01T00:06:47.909Z,14.28
2017-04-01T00:07:49.181Z,14.17
2017-04-01T00:08:50.548Z,14.24
2017-04-01T00:09:51.776Z,14.24
2017-04-01T00:10:53.016Z,14.25
2017-04-01T00:11:54.264Z,14.12
2017-04-01T00:12:55.515Z,14.1
2017-04-01T00:13:56.751Z,14.1
2017-04-01T00:14:58.027Z,14.09
2017-04-01T00:15:59.273Z,14.13
2017-04-01T00:17:00.523Z,14.09
2017-04-01T00:18:01.778Z,14.04
2017-04-01T00:19:03.017Z,14.04
2017-04-01T00:20:04.426Z,14.12
2017-04-01T00:21:05.735Z,14.1
2017-04-01T00:22:07.221Z,14.07
2017-04-01T00:23:08.418Z,14.02
2017-04-01T00:24:09.670Z,14.06
2017-04-01T00:25:10.911Z,13.98
2017-04-01T00:26:12.197Z,13.89
2017-04-01T00:27:13.481Z,13.98
2017-04-01T00:28:14.720Z,13.92
2017-04-01T00:29:15.987Z,13.91
2017-04-01T00:30:17.261Z,13.92
2017-04-01T00:31:18.514Z,13.87
2017-04-01T00:32:19.781Z,13.91
2017-04-01T00:33:21.006Z,13.96
2017-04-01T00:34:22.251Z,13.89
2017-04-01T00:35:23.490Z,13.84
2017-04-01T00:36:24.731Z,13.81
2017-04-01T00:37:25.978Z,13.77
2017-04-01T00:38:27.241Z,13.73
2017-04-01T00:39:28.636Z,13.71
2017-04-01T00:40:29.955Z,13.65
2017-04-01T00:41:31.198Z,13.65
2017-04-01T00:42:32.436Z,13.59
2017-04-01T00:43:33.684Z,13.62
2017-04-01T00:44:35.072Z,13.49
2017-04-01T00:45:36.414Z,13.55
2017-04-01T00:46:37.653Z,13.47
2017-04-01T00:47:38.919Z,13.54
2017-04-01T00:48:40.209Z,13.47
2017-04-01T00:49:41.455Z,13.55
2017-04-01T00:50:42.767Z,13.49
2017-04-01T00:51:44.002Z,13.47
2017-04-01T00:52:45.257Z,13.51
2017-04-01T00:53:46.515Z,13.52
2017-04-01T00:54:47.763Z,13.46
2017-04-01T00:55:49.008Z,13.49
2017-04-01T00:56:50.273Z,13.4
2017-04-01T00:57:51.522Z,13.38
2017-04-01T00:58:52.753Z,13.37
2017-04-01T00:59:54.010Z,13.33
2017-04-01T01:00:55.271Z,13.33
2017-04-01T01:01:56.517Z,13.32
2017-04-01T01:02:57.867Z,13.33
2017-04-01T01:03:59.134Z,13.25
2017-04-01T01:05:00.389Z,13.29
2017-04-01T01:06:01.642Z,13.22
2017-04-01T01:07:02.884Z,13.21
2017-04-01T01:08:04.234Z,13.27
2017-04-01T01:09:05.512Z,13.24
2017-04-01T01:10:06.750Z,13.24
2017-04-01T01:11:08.034Z,13.22
2017-04-01T01:12:09.303Z,13.25
2017-04-01T01:13:10.538Z,13.22
2017-04-01T01:14:11.777Z,13.22
2017-04-01T01:15:13.040Z,13.18
2017-04-01T01:16:14.309Z,13.11
2017-04-01T01:17:15.666Z,13.2
2017-04-01T01:18:16.911Z,13.29
2017-04-01T01:19:18.171Z,13.18
2017-04-01T01:20:19.481Z,13.25
2017-04-01T01:21:20.851Z,13.21
2017-04-01T01:22:22.104Z,13.21
2017-04-01T01:23:23.380Z,13.22
2017-04-01T01:24:24.619Z,13.21
2017-04-01T01:25:25.876Z,13.07
2017-04-01T01:26:27.120Z,13.15
2017-04-01T01:27:28.365Z,13.14
2017-04-01T01:28:29.663Z,13.09
2017-04-01T01:29:30.934Z,13.07
2017-04-01T01:30:32.173Z,13.07
2017-04-01T01:31:33.424Z,13.04
2017-04-01T01:32:34.677Z,13
2017-04-01T01:33:35.948Z,13
2017-04-01T01:34:37.253Z,12.99
2017-04-01T01:35:38.507Z,12.93
2017-04-01T01:36:39.755Z,13
2017-04-01T01:37:41.034Z,12.96
2017-04-01T01:38:42.353Z,12.85
2017-04-01T01:39:43.663Z,12.84
2017-04-01T01:40:44.903Z,12.89
2017-04-01T01:41:46.200Z,12.92
2017-04-01T01:42:47.433Z,12.87
2017-04-01T01:43:48.678Z,12.92
2017-04-01T01:44:49.919Z,12.84
2017-04-01T01:45:51.187Z,12.84
2017-04-01T01:46:52.441Z,12.84
2017-04-01T01:47:53.702Z,12.99
2017-04-01T01:48:54.973Z,12.99
2017-04-01T01:49:56.232Z,12.96
2017-04-01T01:50:57.471Z,12.92
2017-04-01T01:51:58.735Z,13.03
2017-04-01T01:52:59.969Z,13.09
2017-04-01T01:54:01.215Z,13.11
2017-04-01T01:55:02.470Z,13.17
2017-04-01T01:56:03.706Z,13.15
2017-04-01T01:57:04.965Z,13.27
2017-04-01T01:58:06.293Z,13.25
2017-04-01T01:59:07.544Z,13.36
2017-04-01T02:00:08.792Z,13.3
2017-04-01T02:01:10.108Z,13.43
2017-04-01T02:02:11.329Z,13.49
2017-04-01T02:03:12.568Z,13.46
2017-04-01T02:04:13.855Z,13.47
2017-04-01T02:05:15.145Z,13.58
2017-04-01T02:06:16.477Z,13.52
2017-04-01T02:07:17.728Z,13.52
2017-04-01T02:08:18.967Z,13.51
2017-04-01T02:09:20.212Z,13.51
2017-04-01T02:10:21.475Z,13.47
2017-04-01T02:11:22.751Z,13.55
2017-04-01T02:12:24.107Z,13.51
2017-04-01T02:13:25.334Z,13.47
2017-04-01T02:14:26.577Z,13.55
2017-04-01T02:15:27.820Z,13.44
2017-04-01T02:16:29.087Z,13.46
2017-04-01T02:17:30.347Z,13.4
2017-04-01T02:18:31.723Z,13.38
2017-04-01T02:19:32.988Z,13.27
2017-04-01T02:20:34.253Z,13.29
2017-04-01T02:21:35.492Z,13.27
2017-04-01T02:22:36.728Z,13.27
2017-04-01T02:23:37.998Z,13.24
2017-04-01T02:24:39.228Z,13.21
2017-04-01T02:25:40.493Z,13.2
2017-04-01T02:26:41.768Z,13.17
2017-04-01T02:27:43.002Z,13.15
2017-04-01T02:28:44.233Z,13.12
2017-04-01T02:29:45.487Z,13.14
2017-04-01T02:30:46.814Z,13.07
2017-04-01T02:31:48.099Z,13.12
2017-04-01T02:32:49.364Z,13.03
2017-04-01T02:33:50.587Z,13.11
2017-04-01T02:34:51.904Z,13.04
2017-04-01T02:35:53.217Z,13.12
2017-04-01T02:36:54.501Z,13.11
2017-04-01T02:37:55.787Z,13.06
2017-04-01T02:38:57.045Z,13.07
2017-04-01T02:39:58.277Z,13.06
2017-04-01T02:40:59.523Z,13.11
2017-04-01T02:42:00.813Z,13.15
2017-04-01T02:43:02.094Z,13.18
2017-04-01T02:44:03.345Z,13.21
2017-04-01T02:45:04.586Z,13.21
2017-04-01T02:46:05.849Z,13.21
2017-04-01T02:47:07.090Z,13.29
2017-04-01T02:48:08.337Z,13.2
2017-04-01T02:49:09.634Z,13.06
2017-04-01T02:50:10.883Z,13.09
2017-04-01T02:51:12.226Z,13.2
2017-04-01T02:52:13.461Z,13.09
2017-04-01T02:53:14.717Z,13.18
2017-04-01T02:54:15.976Z,13.17
2017-04-01T02:55:17.221Z,13.14
2017-04-01T02:56:18.499Z,13.17
2017-04-01T02:57:19.816Z,13.04
2017-04-01T02:58:21.055Z,13.12
2017-04-01T02:59:22.304Z,13.02
2017-04-01T03:00:23.631Z,13.09
2017-04-01T03:01:24.936Z,13.03
2017-04-01T03:02:26.231Z,13.04
2017-04-01T03:03:27.493Z,13.03
2017-04-01T03:04:28.739Z,13.02
2017-04-01T03:05:30.003Z,13.09
2017-04-01T03:06:31.307Z,13.06
2017-04-01T03:07:32.528Z,13.07
2017-04-01T03:08:33.782Z,13.07
2017-04-01T03:09:35.028Z,13.06
2017-04-01T03:10:36.255Z,13.07
2017-04-01T03:11:37.507Z,13.09
2017-04-01T03:12:38.754Z,13.09
2017-04-01T03:13:39.983Z,13.06
2017-04-01T03:14:41.222Z,13.03
2017-04-01T03:15:42.493Z,13.03
2017-04-01T03:16:43.710Z,13.04
2017-04-01T03:17:44.948Z,13
2017-04-01T03:18:46.296Z,13.07
2017-04-01T03:19:47.505Z,12.89
2017-04-01T03:20:48.842Z,12.97
2017-04-01T03:21:50.097Z,12.96
2017-04-01T03:22:51.337Z,12.99
2017-04-01T03:23:52.598Z,12.96
2017-04-01T03:24:53.834Z,12.95
2017-04-01T03:25:55.081Z,12.87
2017-04-01T03:26:56.347Z,12.93
2017-04-01T03:27:57.579Z,12.99
2017-04-01T03:28:58.911Z,12.96
2017-04-01T03:30:00.155Z,12.87
2017-04-01T03:31:01.400Z,12.87
2017-04-01T03:32:02.695Z,12.75
2017-04-01T03:33:03.948Z,12.7
2017-04-01T03:34:05.189Z,12.77
2017-04-01T03:35:06.450Z,12.75
2017-04-01T03:36:07.706Z,12.74
2017-04-01T03:37:08.945Z,12.78
2017-04-01T03:38:10.195Z,12.7
2017-04-01T03:39:11.540Z,12.7
2017-04-01T03:40:12.888Z,12.66
2017-04-01T03:41:14.136Z,12.7
2017-04-01T03:42:15.395Z,12.75
2017-04-01T03:43:16.636Z,12.54
2017-04-01T03:44:17.933Z,12.69
2017-04-01T03:45:19.199Z,12.64
2017-04-01T03:46:20.458Z,12.69
2017-04-01T03:47:21.680Z,12.6
2017-04-01T03:48:22.958Z,12.63
2017-04-01T03:49:24.202Z,12.63
2017-04-01T03:50:25.562Z,12.63
2017-04-01T03:51:26.808Z,12.49
2017-04-01T03:52:28.082Z,12.52
2017-04-01T03:53:29.317Z,12.41
2017-04-01T03:54:30.574Z,12.49
2017-04-01T03:55:31.823Z,12.41
2017-04-01T03:56:33.073Z,12.41
2017-04-01T03:57:34.333Z,12.42
2017-04-01T03:58:35.772Z,12.41
2017-04-01T03:59:37.033Z,12.29
2017-04-01T04:00:38.270Z,12.39
2017-04-01T04:01:39.511Z,12.31
2017-04-01T04:02:40.752Z,12.26
2017-04-01T04:03:42.024Z,12.31
2017-04-01T04:04:43.246Z,12.29
2017-04-01T04:05:44.483Z,12.29
2017-04-01T04:06:45.722Z,12.24
2017-04-01T04:07:46.965Z,12.27
2017-04-01T04:08:48.358Z,12.27
2017-04-01T04:09:49.666Z,12.29
2017-04-01T04:10:50.907Z,12.2
2017-04-01T04:11:52.241Z,12.12
2017-04-01T04:12:53.480Z,12.24
2017-04-01T04:13:54.737Z,12.34
2017-04-01T04:14:55.983Z,12.31
2017-04-01T04:15:57.255Z,12.26
2017-04-01T04:16:58.594Z,12.29
2017-04-01T04:17:59.888Z,12.24
2017-04-01T04:19:01.111Z,12.29
2017-04-01T04:20:02.352Z,12.3
2017-04-01T04:21:03.598Z,12.24
2017-04-01T04:22:04.933Z,12.27
2017-04-01T04:23:06.172Z,12.19
2017-04-01T04:24:07.408Z,12.13
2017-04-01T04:25:08.647Z,12.19
2017-04-01T04:26:09.915Z,12.13
2017-04-01T04:27:11.144Z,12.19
2017-04-01T04:28:12.406Z,12.2
2017-04-01T04:29:13.759Z,12.11
2017-04-01T04:30:14.984Z,12.13
2017-04-01T04:31:16.219Z,12.11
2017-04-01T04:32:17.464Z,12.11
2017-04-01T04:33:18.699Z,12.09
2017-04-01T04:34:19.965Z,12.11
2017-04-01T04:35:21.236Z,12.11
2017-04-01T04:36:22.469Z,12.11
2017-04-01T04:37:23.713Z,12.13
2017-04-01T04:38:24.962Z,12.11
2017-04-01T04:39:26.219Z,12.16
2017-04-01T04:40:27.472Z,12.13
2017-04-01T04:41:28.723Z,12.12
2017-04-01T04:42:29.974Z,12.16
2017-04-01T04:43:31.223Z,12.13
2017-04-01T04:44:32.469Z,12.05
2017-04-01T04:45:33.729Z,12.04
2017-04-01T04:46:34.972Z,12.15
2017-04-01T04:47:36.208Z,12.06
2017-04-01T04:48:37.473Z,12.02
2017-04-01T04:49:38.749Z,12.05
2017-04-01T04:50:39.994Z,12.05
2017-04-01T04:51:41.232Z,12.04
2017-04-01T04:52:42.470Z,12.12
2017-04-01T04:53:43.736Z,12.02
2017-04-01T04:54:44.972Z,12.01
2017-04-01T04:55:46.197Z,11.99
2017-04-01T04:56:47.484Z,12.11
2017-04-01T04:57:48.718Z,12.02
2017-04-01T04:58:50.001Z,12.01
2017-04-01T04:59:51.213Z,11.99
2017-04-01T05:00:52.480Z,12.05
2017-04-01T05:01:53.851Z,11.89
2017-04-01T05:02:55.093Z,11.96
2017-04-01T05:03:56.327Z,11.99
2017-04-01T05:04:57.558Z,12.02
2017-04-01T05:05:58.801Z,12.04
2017-04-01T05:07:00.060Z,11.97
2017-04-01T05:08:01.350Z,11.96
2017-04-01T05:09:02.578Z,12.01
2017-04-01T05:10:03.825Z,12.04
2017-04-01T05:11:05.072Z,12.02
2017-04-01T05:12:06.360Z,11.94
2017-04-01T05:13:07.678Z,11.97
2017-04-01T05:14:08.922Z,11.89
2017-04-01T05:15:10.269Z,11.89
2017-04-01T05:16:11.479Z,11.89
2017-04-01T05:17:12.728Z,11.93
2017-04-01T05:18:14.064Z,11.86
2017-04-01T05:19:15.282Z,11.87
2017-04-01T05:20:16.523Z,11.87
2017-04-01T05:21:17.765Z,11.85
2017-04-01T05:22:19.019Z,11.86
2017-04-01T05:23:20.249Z,11.87
2017-04-01T05:24:21.494Z,11.8
2017-04-01T05:25:22.795Z,11.86
2017-04-01T05:26:24.064Z,11.89
2017-04-01T05:27:25.279Z,11.96
2017-04-01T05:28:26.572Z,11.96
2017-04-01T05:29:27.812Z,11.97
2017-04-01T05:30:29.049Z,12.04
2017-04-01T05:31:30.387Z,12.05
2017-04-01T05:32:31.751Z,12.01
2017-04-01T05:33:32.980Z,12.13
2017-04-01T05:34:34.224Z,12.05
2017-04-01T05:35:35.462Z,12.06
2017-04-01T05:36:36.709Z,12.15
2017-04-01T05:37:37.963Z,12.16
2017-04-01T05:38:39.326Z,12.15
2017-04-01T05:39:40.584Z,12.16
2017-04-01T05:40:41.820Z,12.3
2017-04-01T05:41:43.059Z,12.26
2017-04-01T05:42:44.307Z,12.38
2017-04-01T05:43:45.699Z,12.45
2017-04-01T05:44:46.955Z,12.38
2017-04-01T05:45:48.251Z,12.37
2017-04-01T05:46:49.477Z,12.41
2017-04-01T05:47:50.736Z,12.48
2017-04-01T05:48:52.080Z,12.51
2017-04-01T05:49:53.375Z,12.56
2017-04-01T05:50:54.780Z,12.64
2017-04-01T05:51:56.039Z,12.54
2017-04-01T05:52:57.268Z,12.71
2017-04-01T05:53:58.515Z,12.66
2017-04-01T05:54:59.848Z,12.71
2017-04-01T05:56:01.085Z,12.75
2017-04-01T05:57:02.332Z,12.88
2017-04-01T05:58:03.571Z,12.95
2017-04-01T05:59:04.857Z,12.99
2017-04-01T06:00:06.192Z,13.02
2017-04-01T06:01:07.415Z,13.06
2017-04-01T06:02:08.689Z,13.18
2017-04-01T06:03:09.957Z,13.36
2017-04-01T06:04:11.289Z,13.56
2017-04-01T06:05:12.528Z,13.74
2017-04-01T06:06:13.767Z,13.89
2017-04-01T06:07:15.016Z,14.13
2017-04-01T06:08:16.445Z,14.39
2017-04-01T06:09:17.687Z,14.68
2017-04-01T06:10:18.927Z,14.84
2017-04-01T06:11:20.173Z,14.93
2017-04-01T06:12:21.419Z,15.17
2017-04-01T06:13:22.671Z,15.35
2017-04-01T06:14:24.047Z,15.51
2017-04-01T06:15:25.258Z,15.52
2017-04-01T06:16:26.508Z,15.54
2017-04-01T06:17:27.746Z,15.52
2017-04-01T06:18:28.985Z,15.41
2017-04-01T06:19:30.230Z,15.43
2017-04-01T06:20:31.463Z,15.35
2017-04-01T06:21:32.734Z,15.31
2017-04-01T06:22:33.985Z,15.27
2017-04-01T06:23:35.293Z,15.3
2017-04-01T06:24:36.524Z,15.38
2017-04-01T06:25:37.779Z,15.46
2017-04-01T06:26:38.996Z,15.41
2017-04-01T06:27:40.245Z,15.49
2017-04-01T06:28:41.502Z,15.68
2017-04-01T06:29:42.739Z,15.74
2017-04-01T06:30:44.005Z,15.89
2017-04-01T06:31:45.290Z,15.89
2017-04-01T06:32:46.584Z,16
2017-04-01T06:33:47.855Z,16.23
2017-04-01T06:34:49.101Z,16.48
2017-04-01T06:35:50.352Z,16.74
2017-04-01T06:36:51.588Z,17
2017-04-01T06:37:52.825Z,17.23
2017-04-01T06:38:54.068Z,17.51
2017-04-01T06:39:55.315Z,17.69
2017-04-01T06:40:56.574Z,17.78
2017-04-01T06:41:57.979Z,17.92
2017-04-01T06:42:59.262Z,17.76
2017-04-01T06:44:00.473Z,17.79
2017-04-01T06:45:01.760Z,17.74
2017-04-01T06:46:03.040Z,17.67
2017-04-01T06:47:04.316Z,17.67
2017-04-01T06:48:05.557Z,17.59
2017-04-01T06:49:06.797Z,17.51
2017-04-01T06:50:08.159Z,17.38
2017-04-01T06:51:09.408Z,17.23
2017-04-01T06:52:10.653Z,17.25
2017-04-01T06:53:11.896Z,17.11
2017-04-01T06:54:13.127Z,17.23
2017-04-01T06:55:14.394Z,17.23
2017-04-01T06:56:15.648Z,17.28
2017-04-01T06:57:16.880Z,17.38
2017-04-01T06:58:18.217Z,17.41
2017-04-01T06:59:19.464Z,17.46
2017-04-01T07:00:20.707Z,17.66
2017-04-01T07:01:21.952Z,17.81
2017-04-01T07:02:23.194Z,17.87
2017-04-01T07:03:24.511Z,17.95
2017-04-01T07:04:25.754Z,17.95
2017-04-01T07:05:27.065Z,18.07
2017-04-01T07:06:28.459Z,18.29
2017-04-01T07:07:29.721Z,18.44
2017-04-01T07:08:30.988Z,18.59
2017-04-01T07:09:32.259Z,18.61
2017-04-01T07:10:33.591Z,18.79
2017-04-01T07:11:34.842Z,19.11
2017-04-01T07:12:36.160Z,19.32
2017-04-01T07:13:37.415Z,19.33
2017-04-01T07:14:38.682Z,19.33
2017-04-01T07:15:39.963Z,19.4
2017-04-01T07:16:41.319Z,19.55
2017-04-01T07:17:42.573Z,19.51
2017-04-01T07:18:43.822Z,19.68
2017-04-01T07:19:45.065Z,19.88
2017-04-01T07:20:46.313Z,20.13
2017-04-01T07:21:47.582Z,20.42
2017-04-01T07:22:48.837Z,20.51
2017-04-01T07:23:50.077Z,20.89
2017-04-01T07:24:51.409Z,21.24
2017-04-01T07:25:52.555Z,21.27
2017-04-01T07:26:53.832Z,21.46
2017-04-01T07:27:55.043Z,21.56
2017-04-01T07:28:56.379Z,21.71
2017-04-01T07:29:57.716Z,21.78
2017-04-01T07:30:58.958Z,22.02
2017-04-01T07:32:00.329Z,22.01
2017-04-01T07:33:01.538Z,22.04
2017-04-01T07:34:02.796Z,22.25
2017-04-01T07:35:04.104Z,22.44
2017-04-01T07:36:05.352Z,22.6
2017-04-01T07:37:06.604Z,22.62
2017-04-01T07:38:07.867Z,22.52
2017-04-01T07:39:09.117Z,22.38
2017-04-01T07:40:10.418Z,22.5
2017-04-01T07:41:11.670Z,22.49
2017-04-01T07:42:12.912Z,22.52
2017-04-01T07:43:14.155Z,22.41
2017-04-01T07:44:15.427Z,22.59
2017-04-01T07:45:16.679Z,22.44
2017-04-01T07:46:17.966Z,22.59
2017-04-01T07:47:19.236Z,22.71
2017-04-01T07:48:20.511Z,22.78
2017-04-01T07:49:21.847Z,22.86
2017-04-01T07:50:23.108Z,22.9
2017-04-01T07:51:24.372Z,22.8
2017-04-01T07:52:25.640Z,22.67
2017-04-01T07:53:26.913Z,22.49
2017-04-01T07:54:28.189Z,22.29
2017-04-01T07:55:29.428Z,22.01
2017-04-01T07:56:30.808Z,21.72
2017-04-01T07:57:32.058Z,21.83
2017-04-01T07:58:33.325Z,21.72
2017-04-01T07:59:34.562Z,21.75
2017-04-01T08:00:36.039Z,22.04
2017-04-01T08:01:37.271Z,22.35
2017-04-01T08:02:38.550Z,22.44
2017-04-01T08:03:39.811Z,22.97
2017-04-01T08:04:41.111Z,23.39
2017-04-01T08:05:42.335Z,23.57
2017-04-01T08:06:43.635Z,23.7
2017-04-01T08:07:44.958Z,23.95
2017-04-01T08:08:46.202Z,24.26
2017-04-01T08:09:47.455Z,24.56
2017-04-01T08:10:48.715Z,24.54
2017-04-01T08:11:50.112Z,24.37
2017-04-01T08:12:51.367Z,24.76
2017-04-01T08:13:52.658Z,25.27
2017-04-01T08:14:53.887Z,25.64
2017-04-01T08:15:55.148Z,25.9
2017-04-01T08:16:56.419Z,26.21
2017-04-01T08:17:57.694Z,26.59
2017-04-01T08:18:58.989Z,26.8
2017-04-01T08:20:00.244Z,27.09
2017-04-01T08:21:01.525Z,27.1
2017-04-01T08:22:02.787Z,27.23
2017-04-01T08:23:04.069Z,27.28
2017-04-01T08:24:05.309Z,27.05
2017-04-01T08:25:06.580Z,26.72
2017-04-01T08:26:07.858Z,26.55
2017-04-01T08:27:09.091Z,26.36
2017-04-01T08:28:10.473Z,26.05
2017-04-01T08:29:11.737Z,26.09
2017-04-01T08:30:13.011Z,25.87
2017-04-01T08:31:14.301Z,25.71
2017-04-01T08:32:15.580Z,25.56
2017-04-01T08:33:16.825Z,25.61
2017-04-01T08:34:18.100Z,25.39
2017-04-01T08:35:19.347Z,25.25
2017-04-01T08:36:20.634Z,25.49
2017-04-01T08:37:21.942Z,25.8
2017-04-01T08:38:23.189Z,26.09
2017-04-01T08:39:24.455Z,26.74
2017-04-01T08:40:25.668Z,27.43
2017-04-01T08:41:26.940Z,28.01
2017-04-01T08:42:28.182Z,28.75
2017-04-01T08:43:29.448Z,29.38
2017-04-01T08:44:30.678Z,29.74
2017-04-01T08:45:31.931Z,29.97
2017-04-01T08:46:33.187Z,30.14
2017-04-01T08:47:34.530Z,30.11
2017-04-01T08:48:35.775Z,29.89
2017-04-01T08:49:37.046Z,29.84
2017-04-01T08:50:38.376Z,29.26
2017-04-01T08:51:39.596Z,28.6
2017-04-01T08:52:40.899Z,28.54
2017-04-01T08:53:42.160Z,28.6
2017-04-01T08:54:43.427Z,28.8
2017-04-01T08:55:44.739Z,29.29
2017-04-01T08:56:46.047Z,29.31
2017-04-01T08:57:47.308Z,29.34
2017-04-01T08:58:48.565Z,29.53
2017-04-01T08:59:49.976Z,29.68
2017-04-01T09:00:51.244Z,29.97
2017-04-01T09:01:52.578Z,30.3
2017-04-01T09:02:53.848Z,30.26
2017-04-01T09:03:55.103Z,30.12
2017-04-01T09:04:56.353Z,29.89
2017-04-01T09:05:57.604Z,29.63
2017-04-01T09:06:58.867Z,29.37
2017-04-01T09:08:00.130Z,28.97
2017-04-01T09:09:01.397Z,28.41
2017-04-01T09:10:02.668Z,27.86
2017-04-01T09:11:04.044Z,27.47
2017-04-01T09:12:05.288Z,26.79
2017-04-01T09:13:06.577Z,26.39
2017-04-01T09:14:07.833Z,25.98
2017-04-01T09:15:09.095Z,25.75
2017-04-01T09:16:10.417Z,25.44
2017-04-01T09:17:11.690Z,25.24
2017-04-01T09:18:12.908Z,24.9
2017-04-01T09:19:14.161Z,24.37
2017-04-01T09:20:15.502Z,24.26
2017-04-01T09:21:16.746Z,24.49
2017-04-01T09:22:18.001Z,24.59
2017-04-01T09:23:19.245Z,24.79
2017-04-01T09:24:20.668Z,24.79
2017-04-01T09:25:21.894Z,24.83
2017-04-01T09:26:23.141Z,24.57
2017-04-01T09:27:24.402Z,24.63
2017-04-01T09:28:25.641Z,24.47
2017-04-01T09:29:26.887Z,23.87
2017-04-01T09:30:28.159Z,23.85
2017-04-01T09:31:29.425Z,23.75
2017-04-01T09:32:30.685Z,23.68
2017-04-01T09:33:31.916Z,24.1
2017-04-01T09:34:33.164Z,24.49
2017-04-01T09:35:34.507Z,24.75
2017-04-01T09:36:35.787Z,25
2017-04-01T09:37:37.030Z,25.05
2017-04-01T09:38:38.307Z,25.19
2017-04-01T09:39:39.568Z,25.32
2017-04-01T09:40:40.830Z,25.28
2017-04-01T09:41:42.130Z,25.46
2017-04-01T09:42:43.376Z,25.37
2017-04-01T09:43:44.638Z,25.37
2017-04-01T09:44:46.075Z,25.28
2017-04-01T09:45:47.341Z,25.07
2017-04-01T09:46:48.679Z,25.09
2017-04-01T09:47:49.912Z,24.98
2017-04-01T09:48:51.161Z,24.9
2017-04-01T09:49:52.443Z,24.88
2017-04-01T09:50:53.687Z,24.69
2017-04-01T09:51:54.940Z,24.45
2017-04-01T09:52:56.201Z,24.39
2017-04-01T09:53:57.454Z,24.42
2017-04-01T09:54:58.881Z,24.59
2017-04-01T09:56:00.164Z,24.67
2017-04-01T09:57:01.373Z,24.76
2017-04-01T09:58:02.646Z,24.97
2017-04-01T09:59:03.885Z,25.02
2017-04-01T10:00:05.324Z,25.44
2017-04-01T10:01:06.574Z,25.83
2017-04-01T10:02:07.860Z,26.24
2017-04-01T10:03:09.124Z,26.98
2017-04-01T10:04:10.376Z,27.61
2017-04-01T10:05:11.635Z,28.04
2017-04-01T10:06:12.912Z,28.46
2017-04-01T10:07:14.189Z,28.62
2017-04-01T10:08:15.427Z,28.29
2017-04-01T10:09:16.698Z,28.11
2017-04-01T10:10:17.990Z,27.76
2017-04-01T10:11:19.219Z,26.91
2017-04-01T10:12:20.588Z,26.73
2017-04-01T10:13:21.859Z,26.36
2017-04-01T10:14:23.134Z,26.28
2017-04-01T10:15:24.375Z,26.31
2017-04-01T10:16:25.634Z,26.49
2017-04-01T10:17:26.882Z,26.61
2017-04-01T10:18:28.141Z,26.98
2017-04-01T10:19:29.394Z,27.23
2017-04-01T10:20:30.648Z,27.57
2017-04-01T10:21:31.889Z,27.79
2017-04-01T10:22:33.140Z,28.41
2017-04-01T10:23:34.427Z,28.56
2017-04-01T10:24:35.725Z,28.69
2017-04-01T10:25:37.025Z,29.04
2017-04-01T10:26:38.403Z,29.16
2017-04-01T10:27:39.651Z,28.93
2017-04-01T10:28:40.906Z,28.65
2017-04-01T10:29:42.284Z,28.58
2017-04-01T10:30:43.649Z,28.13
2017-04-01T10:31:44.990Z,28.13
2017-04-01T10:32:46.231Z,28.11
2017-04-01T10:33:47.478Z,28.06
2017-04-01T10:34:48.731Z,27.89
2017-04-01T10:35:49.988Z,27.91
2017-04-01T10:36:51.229Z,27.66
2017-04-01T10:37:52.483Z,27.06
2017-04-01T10:38:53.737Z,26.37
2017-04-01T10:39:54.983Z,25.8
2017-04-01T10:40:56.341Z,25.99
2017-04-01T10:41:57.620Z,25.86
2017-04-01T10:42:58.898Z,26.04
2017-04-01T10:44:00.170Z,26.25
2017-04-01T10:45:01.521Z,26.24
2017-04-01T10:46:02.768Z,26.08
2017-04-01T10:47:04.024Z,25.86
2017-04-01T10:48:05.338Z,25.57
2017-04-01T10:49:06.662Z,25.71
2017-04-01T10:50:07.962Z,25.52
2017-04-01T10:51:09.239Z,25.28
2017-04-01T10:52:10.501Z,24.76
2017-04-01T10:53:11.788Z,24.39
2017-04-01T10:54:13.066Z,24.07
2017-04-01T10:55:14.370Z,24.08
2017-04-01T10:56:15.667Z,23.89
2017-04-01T10:57:17.258Z,23.97
2017-04-01T10:58:18.433Z,24.04
2017-04-01T10:59:20.014Z,24.07
2017-04-01T11:00:21.336Z,23.89
2017-04-01T11:01:22.594Z,23.92
2017-04-01T11:02:23.830Z,23.86
2017-04-01T11:03:25.103Z,23.75
2017-04-01T11:04:26.397Z,24.04
2017-04-01T11:05:27.692Z,24.16
2017-04-01T11:06:28.950Z,24.34
2017-04-01T11:07:30.218Z,24.31
2017-04-01T11:08:31.469Z,24.35
2017-04-01T11:09:32.736Z,24.31
2017-04-01T11:10:34.164Z,24.38
2017-04-01T11:11:35.404Z,24.22
2017-04-01T11:12:36.667Z,24.1
2017-04-01T11:13:37.932Z,24.05
2017-04-01T11:14:39.185Z,24.12
2017-04-01T11:15:40.432Z,24.13
2017-04-01T11:16:41.847Z,24.29
2017-04-01T11:17:43.120Z,24.41
2017-04-01T11:18:44.495Z,24.44
2017-04-01T11:19:45.756Z,24.34
2017-04-01T11:20:47.012Z,24.32
2017-04-01T11:21:48.376Z,24.23
2017-04-01T11:22:49.660Z,23.83
2017-04-01T11:23:50.894Z,23.57
2017-04-01T11:24:52.146Z,23.57
2017-04-01T11:25:53.392Z,23.52
2017-04-01T11:26:54.707Z,23.29
2017-04-01T11:27:55.977Z,23.19
2017-04-01T11:28:57.251Z,23.26
2017-04-01T11:29:58.515Z,23.32
2017-04-01T11:30:59.776Z,23.22
2017-04-01T11:32:01.016Z,23.23
2017-04-01T11:33:02.353Z,23.5
2017-04-01T11:34:03.760Z,23.6
2017-04-01T11:35:05.037Z,23.53
2017-04-01T11:36:06.405Z,23.62
2017-04-01T11:37:07.672Z,23.67
2017-04-01T11:38:08.946Z,23.67
2017-04-01T11:39:10.339Z,23.85
2017-04-01T11:40:11.584Z,23.85
2017-04-01T11:41:12.942Z,23.75
2017-04-01T11:42:14.218Z,23.68
2017-04-01T11:43:15.481Z,23.68
2017-04-01T11:44:16.805Z,23.86
2017-04-01T11:45:18.192Z,23.89
2017-04-01T11:46:19.557Z,23.8
2017-04-01T11:47:20.808Z,23.72
2017-04-01T11:48:22.086Z,23.64
2017-04-01T11:49:23.382Z,23.27
2017-04-01T11:50:24.628Z,23.2
2017-04-01T11:51:25.984Z,23.11
2017-04-01T11:52:27.271Z,23.19
2017-04-01T11:53:28.540Z,23.12
2017-04-01T11:54:29.813Z,22.92
2017-04-01T11:55:31.105Z,22.8
2017-04-01T11:56:32.359Z,22.96
2017-04-01T11:57:33.669Z,23.24
2017-04-01T11:58:34.998Z,23.46
2017-04-01T11:59:36.248Z,23.26
2017-04-01T12:00:37.539Z,23.31
2017-04-01T12:01:38.826Z,23.31
2017-04-01T12:02:40.174Z,23.38
2017-04-01T12:03:41.442Z,23.27
2017-04-01T12:04:42.709Z,23.12
2017-04-01T12:05:43.961Z,23.08
2017-04-01T12:06:45.222Z,23.04
2017-04-01T12:07:46.507Z,23.2
2017-04-01T12:08:47.749Z,23.12
2017-04-01T12:09:49.028Z,23.15
2017-04-01T12:10:50.340Z,23.01
2017-04-01T12:11:51.632Z,22.83
2017-04-01T12:12:52.882Z,22.59
2017-04-01T12:13:54.312Z,22.43
2017-04-01T12:14:55.622Z,22.44
2017-04-01T12:15:56.877Z,22.59
2017-04-01T12:16:58.110Z,22.49
2017-04-01T12:17:59.395Z,22.52
2017-04-01T12:19:00.622Z,22.49
2017-04-01T12:20:01.869Z,22.34
2017-04-01T12:21:03.208Z,22.32
2017-04-01T12:22:04.509Z,22.34
2017-04-01T12:23:05.788Z,22.25
2017-04-01T12:24:07.044Z,22.29
2017-04-01T12:25:08.292Z,22.06
2017-04-01T12:26:09.633Z,21.97
2017-04-01T12:27:10.958Z,21.82
2017-04-01T12:28:12.249Z,21.9
2017-04-01T12:29:13.499Z,21.97
2017-04-01T12:30:14.774Z,22.13
2017-04-01T12:31:16.037Z,22.28
2017-04-01T12:32:17.342Z,22.34
2017-04-01T12:33:18.612Z,22.47
2017-04-01T12:34:19.847Z,22.46
2017-04-01T12:35:21.124Z,22.49
2017-04-01T12:36:22.409Z,22.49
2017-04-01T12:37:23.695Z,22.47
2017-04-01T12:38:24.970Z,22.39
2017-04-01T12:39:26.257Z,22.31
2017-04-01T12:40:27.489Z,22.34
2017-04-01T12:41:28.769Z,22.16
2017-04-01T12:42:30.140Z,22.22
2017-04-01T12:43:31.385Z,22.09
2017-04-01T12:44:32.715Z,22.07
2017-04-01T12:45:33.973Z,22.06
2017-04-01T12:46:35.236Z,22.12
2017-04-01T12:47:36.505Z,22.2
2017-04-01T12:48:37.759Z,22.34
2017-04-01T12:49:39.099Z,22.53
2017-04-01T12:50:40.365Z,22.65
2017-04-01T12:51:41.639Z,22.57
2017-04-01T12:52:42.906Z,22.71
2017-04-01T12:53:44.147Z,22.64
2017-04-01T12:54:45.610Z,22.59
2017-04-01T12:55:46.897Z,22.72
2017-04-01T12:56:48.274Z,22.8
2017-04-01T12:57:49.537Z,22.92
2017-04-01T12:58:50.784Z,23.09
2017-04-01T12:59:52.155Z,23.19
2017-04-01T13:00:53.444Z,23.32
2017-04-01T13:01:54.697Z,23.14
2017-04-01T13:02:55.990Z,22.84
2017-04-01T13:03:57.265Z,22.84
2017-04-01T13:04:58.589Z,22.87
2017-04-01T13:05:59.955Z,22.71
2017-04-01T13:07:01.216Z,22.62
2017-04-01T13:08:02.477Z,22.57
2017-04-01T13:09:03.730Z,22.64
2017-04-01T13:10:04.996Z,22.69
2017-04-01T13:11:06.266Z,22.84